createdAt,value
2022-07-26T00:01:19.431Z,100.00
2022-07-26T00:03:47.706Z,100.00
2022-07-26T00:06:15.528Z,100.00
2022-07-26T00:08:47.261Z,100.00
2022-07-26T00:11:15.158Z,100.00
2022-07-26T00:13:50.744Z,100.00
2022-07-26T00:16:18.360Z,100.00
2022-07-26T00:18:47.736Z,100.00
2022-07-26T00:21:15.196Z,100.00
2022-07-26T00:23:42.725Z,100.00
2022-07-26T00:26:10.357Z,100.00
2022-07-26T00:28:37.894Z,100.00
2022-07-26T00:31:05.492Z,100.00
2022-07-26T00:33:33.174Z,100.00
2022-07-26T00:36:00.841Z,100.00
2022-07-26T00:38:28.423Z,100.00
2022-07-26T00:40:55.850Z,100.00
2022-07-26T00:43:23.386Z,100.00
2022-07-26T00:45:50.940Z,100.00
2022-07-26T00:48:18.599Z,100.00
2022-07-26T00:50:46.916Z,100.00
2022-07-26T00:53:14.446Z,100.00
2022-07-26T00:55:42.712Z,100.00
2022-07-26T00:58:10.172Z,100.00
2022-07-26T01:00:37.997Z,100.00
2022-07-26T01:03:05.532Z,100.00
2022-07-26T01:05:33.646Z,100.00
2022-07-26T01:08:01.444Z,100.00
2022-07-26T01:10:29.120Z,100.00
2022-07-26T01:12:56.655Z,100.00
2022-07-26T01:15:25.841Z,100.00
2022-07-26T01:17:53.399Z,100.00
2022-07-26T01:20:23.791Z,100.00
2022-07-26T01:22:51.540Z,100.00
2022-07-26T01:25:28.287Z,100.00
2022-07-26T01:27:55.755Z,100.00
2022-07-26T01:30:23.184Z,100.00
2022-07-26T01:32:50.668Z,100.00
2022-07-26T01:35:18.039Z,100.00
2022-07-26T01:37:45.420Z,100.00
2022-07-26T01:40:13.143Z,100.00
2022-07-26T01:42:41.338Z,100.00
2022-07-26T01:45:11.828Z,100.00
2022-07-26T01:47:39.394Z,100.00
2022-07-26T01:50:07.296Z,100.00
2022-07-26T01:52:35.792Z,100.00
2022-07-26T01:55:03.497Z,100.00
2022-07-26T01:57:31.994Z,100.00
2022-07-26T01:59:59.564Z,100.00
2022-07-26T02:02:27.191Z,100.00
2022-07-26T02:05:00.497Z,100.00
2022-07-26T02:07:28.512Z,100.00
2022-07-26T02:09:56.087Z,100.00
2022-07-26T02:12:25.642Z,100.00
2022-07-26T02:14:53.029Z,100.00
2022-07-26T02:17:20.493Z,100.00
2022-07-26T02:19:48.065Z,100.00
2022-07-26T02:22:15.422Z,100.00
2022-07-26T02:24:42.892Z,100.00
2022-07-26T02:27:10.270Z,100.00
2022-07-26T02:29:37.621Z,100.00
2022-07-26T02:32:05.407Z,100.00
2022-07-26T02:34:34.023Z,94.40
2022-07-26T02:37:02.595Z,89.55
2022-07-26T02:39:30.086Z,87.25
2022-07-26T02:41:58.032Z,89.91
2022-07-26T02:44:25.715Z,90.01
2022-07-26T02:46:53.645Z,96.55
2022-07-26T02:49:21.354Z,100.00
2022-07-26T02:51:48.818Z,100.00
2022-07-26T02:54:16.329Z,100.00
2022-07-26T02:56:43.753Z,100.00
2022-07-26T02:59:11.132Z,100.00
2022-07-26T03:01:39.895Z,100.00
2022-07-26T03:04:10.485Z,100.00
2022-07-26T03:06:38.527Z,100.00
2022-07-26T03:09:06.079Z,100.00
2022-07-26T03:11:33.439Z,100.00
2022-07-26T03:14:00.847Z,100.00
2022-07-26T03:16:29.997Z,100.00
2022-07-26T03:18:57.666Z,100.00
2022-07-26T03:21:25.124Z,100.00
2022-07-26T03:23:52.558Z,100.00
2022-07-26T03:26:20.369Z,100.00
2022-07-26T03:28:47.845Z,100.00
2022-07-26T03:31:15.327Z,100.00
2022-07-26T03:33:42.901Z,100.00
2022-07-26T03:36:11.635Z,100.00
2022-07-26T03:38:42.892Z,100.00
2022-07-26T03:41:12.808Z,100.00
2022-07-26T03:43:41.316Z,100.00
2022-07-26T03:46:08.844Z,100.00
2022-07-26T03:48:36.425Z,100.00
2022-07-26T03:51:03.888Z,100.00
2022-07-26T03:53:31.263Z,100.00
2022-07-26T03:56:18.428Z,100.00
2022-07-26T03:58:45.845Z,100.00
2022-07-26T04:01:13.258Z,100.00
2022-07-26T04:03:44.436Z,100.00
2022-07-26T04:06:15.185Z,100.00
2022-07-26T04:08:43.151Z,100.00
2022-07-26T04:11:10.628Z,100.00
2022-07-26T04:13:38.110Z,100.00
2022-07-26T04:16:05.742Z,100.00
2022-07-26T04:18:33.652Z,100.00
2022-07-26T04:21:01.177Z,100.00
2022-07-26T04:23:28.881Z,100.00
2022-07-26T04:25:56.299Z,100.00
2022-07-26T04:28:26.850Z,100.00
2022-07-26T04:30:54.678Z,100.00
2022-07-26T04:33:22.066Z,100.00
2022-07-26T04:35:49.497Z,100.00
2022-07-26T04:38:16.841Z,100.00
2022-07-26T04:40:44.248Z,100.00
2022-07-26T04:43:15.279Z,100.00
2022-07-26T04:45:46.714Z,100.00
2022-07-26T04:48:14.608Z,100.00
2022-07-26T04:50:42.213Z,100.00
2022-07-26T04:53:11.255Z,100.00
2022-07-26T04:55:38.717Z,100.00
2022-07-26T04:58:06.178Z,100.00
2022-07-26T05:00:35.065Z,100.00
2022-07-26T05:03:14.355Z,100.00
2022-07-26T05:05:41.832Z,100.00
2022-07-26T05:08:09.394Z,100.00
2022-07-26T17:15:48.400Z,85.67
2022-07-26T17:18:15.996Z,86.67
2022-07-26T17:20:44.158Z,85.78
2022-07-26T17:23:11.893Z,85.12
2022-07-26T17:25:39.423Z,86.23
2022-07-26T17:28:06.895Z,88.35
2022-07-26T17:30:34.454Z,87.45
2022-07-26T17:33:02.015Z,87.80
2022-07-26T17:35:30.460Z,88.22
2022-07-26T17:37:57.871Z,90.97
2022-07-26T17:40:25.734Z,88.88
2022-07-26T17:42:53.397Z,92.54
2022-07-26T17:45:20.792Z,91.29
2022-07-26T17:47:48.308Z,91.87
2022-07-26T17:53:03.156Z,92.80
2022-07-26T17:55:30.633Z,91.85
2022-07-26T17:57:58.117Z,92.17
2022-07-26T18:00:27.020Z,93.74
2022-07-26T18:02:56.953Z,92.41
2022-07-26T18:05:32.101Z,93.05
2022-07-26T18:08:00.672Z,94.95
2022-07-26T18:10:28.391Z,95.22
2022-07-26T18:12:56.093Z,93.77
2022-07-26T18:15:23.666Z,93.88
2022-07-26T18:17:51.131Z,91.40
2022-07-26T18:20:18.847Z,90.87
2022-07-26T18:22:50.052Z,91.57
2022-07-26T18:25:17.870Z,91.25
2022-07-26T18:27:46.059Z,91.59
2022-07-26T18:30:13.573Z,94.51
2022-07-26T18:32:41.063Z,92.50
2022-07-26T18:35:08.600Z,96.05
2022-07-26T18:37:36.191Z,92.49
2022-07-26T18:40:04.178Z,78.98
2022-07-26T18:42:31.747Z,71.96
2022-07-26T18:44:59.599Z,69.89
2022-07-26T18:47:27.163Z,70.66
2022-07-26T18:49:55.096Z,68.49
2022-07-26T18:52:28.500Z,66.91
2022-07-26T18:55:01.104Z,67.71
2022-07-26T18:57:29.046Z,68.14
2022-07-26T18:59:56.416Z,66.78
2022-07-26T19:02:23.897Z,66.86
2022-07-26T19:04:54.001Z,67.03
2022-07-26T19:07:21.423Z,65.98
2022-07-26T19:09:54.945Z,69.48
2022-07-26T19:12:27.733Z,69.96
2022-07-26T19:14:55.353Z,73.77
2022-07-26T19:17:24.962Z,72.39
2022-07-26T19:19:52.744Z,71.96
2022-07-26T19:22:21.847Z,73.23
2022-07-26T19:24:49.292Z,79.88
2022-07-26T19:27:17.033Z,85.84
2022-07-26T19:29:44.516Z,92.10
2022-07-26T19:32:12.004Z,95.27
2022-07-26T19:34:39.385Z,96.84
2022-07-26T19:37:06.945Z,100.00
2022-07-26T19:39:35.282Z,100.00
2022-07-26T19:42:02.686Z,100.00
2022-07-26T19:44:32.424Z,100.00
2022-07-26T19:46:59.853Z,100.00
2022-07-26T19:49:27.430Z,100.00
2022-07-26T19:51:54.894Z,100.00
2022-07-26T19:54:23.029Z,100.00
2022-07-26T19:56:50.421Z,100.00
2022-07-26T19:59:23.218Z,100.00
2022-07-26T20:01:53.059Z,100.00
2022-07-26T20:04:21.470Z,100.00
2022-07-26T20:06:50.645Z,100.00
2022-07-26T20:09:18.069Z,100.00
2022-07-26T20:11:50.863Z,100.00
2022-07-26T20:14:18.694Z,100.00
2022-07-26T20:16:47.230Z,100.00
2022-07-26T20:19:14.754Z,100.00
2022-07-26T20:21:43.533Z,100.00
2022-07-26T20:24:11.772Z,100.00
2022-07-26T20:26:39.939Z,100.00
2022-07-26T20:29:07.643Z,100.00
2022-07-26T20:31:35.127Z,100.00
2022-07-26T20:34:02.711Z,100.00
2022-07-26T20:36:30.225Z,100.00
2022-07-26T20:38:57.733Z,100.00
2022-07-26T20:41:25.608Z,100.00
2022-07-26T20:43:53.522Z,100.00
2022-07-26T20:46:24.420Z,100.00
2022-07-26T20:48:54.011Z,100.00
2022-07-26T20:51:21.630Z,100.00
2022-07-26T20:53:49.301Z,100.00
2022-07-26T20:56:17.045Z,100.00
2022-07-26T20:58:45.278Z,100.00
2022-07-26T21:01:13.272Z,100.00
2022-07-26T21:03:43.169Z,100.00
2022-07-26T21:06:11.113Z,100.00
2022-07-26T21:08:39.673Z,100.00
2022-07-26T21:11:07.048Z,100.00
2022-07-26T21:13:35.104Z,100.00
2022-07-26T21:16:03.706Z,100.00
2022-07-26T21:18:34.023Z,100.00
2022-07-26T21:21:02.747Z,100.00
